Time;durP1;ratioP1;P1;durP2;ratioP2;P2;SDS_P1;SDS_P2;PMS_P1;PMS_P2;Temp;Humidity;BMP_temperature;BMP_pressure;BME280_temperature;BME280_humidity;BME280_pressure;Samples;Min_cycle;Max_cycle;Signal;HPM_P1;HPM_P2
2022/03/19 00:00:13;;;;;;;;;;;22.00;33.30;;;;;;702389;28;857;-81
2022/03/19 00:00:33;;;;;;;;;;;22.00;33.10;;;;;;702297;28;873;-81
2022/03/19 00:00:54;;;;;;;;;;;22.00;33.60;;;;;;702396;28;829;-80
2022/03/19 00:01:14;;;;;;;;;;;22.00;33.20;;;;;;702541;28;853;-81
2022/03/19 00:01:35;;;;;;;;;;;22.00;33.10;;;;;;702418;28;900;-80
2022/03/19 00:01:56;;;;;;;;;;;22.00;33.10;;;;;;702361;28;883;-80
2022/03/19 00:02:18;;;;;;;;;;;22.00;33.10;;;;;;702475;28;809;-80
2022/03/19 00:02:41;;;;;;;;;;;22.00;33.10;;;;;;702407;28;888;-81
2022/03/19 00:03:02;;;;;;;;;;;22.00;33.40;;;;;;702447;28;846;-80
2022/03/19 00:03:23;;;;;;;;;;;22.00;33.20;;;;;;702283;28;853;-81
2022/03/19 00:03:44;;;;;;;;;;;22.00;33.30;;;;;;702366;28;1329;-82
2022/03/19 00:04:04;;;;;;;;;;;22.10;33.30;;;;;;702209;28;850;-81
2022/03/19 00:04:25;;;;;;;;;;;22.00;33.30;;;;;;702139;28;825;-81
2022/03/19 00:04:46;;;;;;;;;;;22.00;33.00;;;;;;702274;28;834;-80
2022/03/19 00:05:08;;;;;;;;;;;22.00;33.00;;;;;;702182;28;818;-82
2022/03/19 00:05:29;;;;;;;;;;;22.00;33.10;;;;;;702205;28;834;-81
2022/03/19 00:05:50;;;;;;;;;;;22.00;33.10;;;;;;702462;28;864;-81
2022/03/19 00:06:10;;;;;;;;;;;22.00;33.00;;;;;;702395;28;806;-81
2022/03/19 00:06:35;;;;;;;;;;;22.00;33.50;;;;;;702370;28;762;-81
2022/03/19 00:06:56;;;;;;;;;;;22.10;33.10;;;;;;702386;28;896;-82
2022/03/19 00:07:16;;;;;;;;;;;22.00;33.10;;;;;;702462;28;916;-81
2022/03/19 00:07:38;;;;;;;;;;;22.00;33.10;;;;;;702453;28;829;-81
2022/03/19 00:08:00;;;;;;;;;;;22.00;32.90;;;;;;702074;28;1357;-81
2022/03/19 00:08:21;;;;;;;;;;;22.00;33.20;;;;;;699539;28;1300;-81
2022/03/19 00:08:42;;;;;;;;;;;22.10;33.00;;;;;;699338;28;834;-81
2022/03/19 00:09:03;;;;;;;;;;;22.00;33.20;;;;;;699353;28;814;-81
2022/03/19 00:09:24;;;;;;;;;;;22.10;33.00;;;;;;699346;28;884;-81
2022/03/19 00:09:44;;;;;;;;;;;22.10;33.00;;;;;;700143;28;1957;-81
2022/03/19 00:10:08;;;;;;;;;;;22.00;33.30;;;;;;702229;28;782;-81
2022/03/19 00:10:29;;;;;;;;;;;22.00;33.00;;;;;;702329;28;817;-81
2022/03/19 00:10:50;;;;;;;;;;;22.10;33.10;;;;;;702568;28;857;-80
2022/03/19 00:11:11;;;;;;;;;;;22.10;32.90;;;;;;702333;28;833;-81
2022/03/19 00:11:31;;;;;;;;;;;22.00;32.90;;;;;;702315;28;877;-80
2022/03/19 00:11:54;;;;;;;;;;;22.10;33.00;;;;;;702482;28;809;-81
2022/03/19 00:12:14;;;;;;;;;;;21.50;32.80;;;;;;702504;28;892;-81
2022/03/19 00:12:35;;;;;;;;;;;22.00;33.00;;;;;;702440;28;833;-81
2022/03/19 00:12:58;;;;;;;;;;;22.00;33.00;;;;;;702489;28;841;-81
2022/03/19 00:13:18;;;;;;;;;;;22.00;33.10;;;;;;702499;28;821;-81
2022/03/19 00:13:39;;;;;;;;;;;22.10;33.10;;;;;;702377;28;892;-81
2022/03/19 00:13:59;;;;;;;;;;;22.00;33.00;;;;;;702388;28;845;-81
2022/03/19 00:14:20;;;;;;;;;;;22.00;33.10;;;;;;702293;28;885;-80
2022/03/19 00:14:41;;;;;;;;;;;22.00;33.10;;;;;;701681;28;1278;-80
2022/03/19 00:15:02;;;;;;;;;;;22.00;33.00;;;;;;699255;28;1349;-81
2022/03/19 00:15:22;;;;;;;;;;;22.00;33.20;;;;;;699407;28;870;-82
2022/03/19 00:15:43;;;;;;;;;;;22.00;33.10;;;;;;699438;28;893;-81
2022/03/19 00:16:05;;;;;;;;;;;22.00;33.10;;;;;;699411;28;873;-81
2022/03/19 00:16:25;;;;;;;;;;;22.00;33.10;;;;;;699871;28;877;-81
2022/03/19 00:16:46;;;;;;;;;;;22.00;33.10;;;;;;702296;28;1163;-81
2022/03/19 00:17:07;;;;;;;;;;;21.90;32.90;;;;;;702493;28;833;-81
2022/03/19 00:17:27;;;;;;;;;;;22.00;33.00;;;;;;702321;28;821;-81
2022/03/19 00:17:48;;;;;;;;;;;22.00;32.80;;;;;;702173;28;1299;-81
2022/03/19 00:18:08;;;;;;;;;;;21.90;32.80;;;;;;702062;28;1289;-81
2022/03/19 00:18:29;;;;;;;;;;;21.90;32.70;;;;;;699125;28;853;-81
2022/03/19 00:18:50;;;;;;;;;;;22.00;32.80;;;;;;699341;28;993;-80
2022/03/19 00:19:10;;;;;;;;;;;21.90;32.70;;;;;;699395;28;782;-80
2022/03/19 00:19:31;;;;;;;;;;;21.90;32.80;;;;;;699138;28;1254;-81
2022/03/19 00:19:51;;;;;;;;;;;21.90;32.80;;;;;;699684;28;877;-81
2022/03/19 00:20:12;;;;;;;;;;;21.90;32.80;;;;;;702173;28;913;-80
2022/03/19 00:20:35;;;;;;;;;;;21.90;32.70;;;;;;702508;28;806;-81
2022/03/19 00:20:56;;;;;;;;;;;21.90;32.80;;;;;;702435;28;806;-81
2022/03/19 00:21:16;;;;;;;;;;;21.90;32.90;;;;;;702590;28;805;-81
2022/03/19 00:21:37;;;;;;;;;;;21.90;32.80;;;;;;702365;28;856;-80
2022/03/19 00:21:57;;;;;;;;;;;21.90;32.80;;;;;;702355;28;928;-81
2022/03/19 00:22:18;;;;;;;;;;;21.90;32.80;;;;;;702428;28;825;-81
2022/03/19 00:22:39;;;;;;;;;;;21.90;33.00;;;;;;702289;28;810;-81
2022/03/19 00:22:59;;;;;;;;;;;21.90;32.70;;;;;;702409;28;837;-81
2022/03/19 00:23:20;;;;;;;;;;;21.90;32.80;;;;;;702466;28;917;-81
2022/03/19 00:23:40;;;;;;;;;;;21.90;32.70;;;;;;702313;28;881;-81
2022/03/19 00:24:02;;;;;;;;;;;21.90;32.70;;;;;;702371;28;810;-81
2022/03/19 00:24:23;;;;;;;;;;;21.90;33.90;;;;;;702009;28;1142;-82
2022/03/19 00:24:43;;;;;;;;;;;21.80;32.70;;;;;;702284;28;809;-81
2022/03/19 00:25:04;;;;;;;;;;;21.90;32.70;;;;;;699270;28;1201;-81
2022/03/19 00:25:25;;;;;;;;;;;21.90;32.70;;;;;;699462;28;787;-81
2022/03/19 00:25:46;;;;;;;;;;;21.90;32.80;;;;;;699366;28;790;-81
2022/03/19 00:26:07;;;;;;;;;;;21.80;32.80;;;;;;699712;28;794;-81
2022/03/19 00:26:27;;;;;;;;;;;21.90;32.80;;;;;;702112;28;1046;-81
2022/03/19 00:26:48;;;;;;;;;;;21.90;32.90;;;;;;702290;28;801;-81
2022/03/19 00:27:08;;;;;;;;;;;21.90;32.80;;;;;;702351;28;866;-81
2022/03/19 00:27:29;;;;;;;;;;;21.80;32.70;;;;;;702300;28;941;-81
2022/03/19 00:27:50;;;;;;;;;;;21.90;32.70;;;;;;702389;28;802;-81
2022/03/19 00:28:11;;;;;;;;;;;21.90;32.80;;;;;;702420;28;870;-81
2022/03/19 00:28:31;;;;;;;;;;;21.80;32.70;;;;;;702375;28;810;-81
2022/03/19 00:28:52;;;;;;;;;;;21.90;32.70;;;;;;702335;28;893;-81
2022/03/19 00:29:12;;;;;;;;;;;21.80;32.50;;;;;;702344;28;869;-80
2022/03/19 00:29:33;;;;;;;;;;;21.80;32.70;;;;;;702324;28;822;-81
2022/03/19 00:29:53;;;;;;;;;;;21.80;32.90;;;;;;702225;28;1914;-81
2022/03/19 00:30:15;;;;;;;;;;;21.80;32.70;;;;;;702476;28;873;-81
2022/03/19 00:30:36;;;;;;;;;;;21.80;32.60;;;;;;702017;28;1253;-81
2022/03/19 00:30:56;;;;;;;;;;;21.80;32.60;;;;;;702130;28;802;-81
2022/03/19 00:31:17;;;;;;;;;;;21.80;32.60;;;;;;702231;28;874;-81
2022/03/19 00:31:38;;;;;;;;;;;21.80;32.60;;;;;;702137;28;841;-80
2022/03/19 00:31:58;;;;;;;;;;;21.80;32.80;;;;;;702030;28;782;-80
2022/03/19 00:32:19;;;;;;;;;;;21.80;32.80;;;;;;702288;28;812;-80
2022/03/19 00:32:40;;;;;;;;;;;21.80;32.70;;;;;;702370;28;841;-80
2022/03/19 00:33:00;;;;;;;;;;;21.80;32.60;;;;;;702288;28;846;-80
2022/03/19 00:33:21;;;;;;;;;;;21.80;32.60;;;;;;702468;28;829;-80
2022/03/19 00:33:41;;;;;;;;;;;21.80;32.60;;;;;;702216;28;1160;-80
2022/03/19 00:34:02;;;;;;;;;;;21.80;32.60;;;;;;702022;28;805;-80
2022/03/19 00:34:23;;;;;;;;;;;21.80;32.60;;;;;;702119;28;874;-81
2022/03/19 00:34:43;;;;;;;;;;;21.80;32.60;;;;;;702241;28;829;-81
2022/03/19 00:35:04;;;;;;;;;;;21.80;32.60;;;;;;702086;28;846;-81
2022/03/19 00:35:25;;;;;;;;;;;21.80;32.60;;;;;;702074;28;916;-80
2022/03/19 00:35:45;;;;;;;;;;;21.80;32.60;;;;;;702417;28;849;-80
2022/03/19 00:36:06;;;;;;;;;;;21.80;32.60;;;;;;702252;28;802;-80
2022/03/19 00:36:27;;;;;;;;;;;21.80;32.70;;;;;;702467;28;743;-80
2022/03/19 00:36:49;;;;;;;;;;;21.50;32.50;;;;;;702379;28;865;-80
2022/03/19 00:37:10;;;;;;;;;;;21.80;32.70;;;;;;702294;28;908;-80
2022/03/19 00:37:32;;;;;;;;;;;21.80;32.60;;;;;;702418;28;861;-80
2022/03/19 00:37:53;;;;;;;;;;;21.80;32.80;;;;;;702333;28;825;-80
2022/03/19 00:38:14;;;;;;;;;;;21.80;32.60;;;;;;702119;28;1472;-80
2022/03/19 00:38:35;;;;;;;;;;;21.80;32.70;;;;;;702352;28;1301;-81
2022/03/19 00:38:56;;;;;;;;;;;21.80;33.30;;;;;;702159;28;849;-80
2022/03/19 00:39:16;;;;;;;;;;;21.80;32.60;;;;;;702225;28;991;-80
2022/03/19 00:39:37;;;;;;;;;;;21.80;32.60;;;;;;702128;28;810;-80
2022/03/19 00:39:58;;;;;;;;;;;21.80;32.90;;;;;;702064;28;814;-82
2022/03/19 00:40:19;;;;;;;;;;;21.80;32.60;;;;;;702247;28;925;-80
2022/03/19 00:40:40;;;;;;;;;;;21.80;32.60;;;;;;702348;28;848;-80
2022/03/19 00:41:02;;;;;;;;;;;21.80;33.90;;;;;;702227;28;897;-80
2022/03/19 00:41:22;;;;;;;;;;;21.80;32.80;;;;;;702742;28;873;-78
2022/03/19 00:41:43;;;;;;;;;;;21.80;33.60;;;;;;702130;28;1317;-80
2022/03/19 00:42:03;;;;;;;;;;;21.80;33.10;;;;;;702037;28;762;-79
2022/03/19 00:42:24;;;;;;;;;;;21.70;33.40;;;;;;702095;28;864;-80
2022/03/19 00:42:45;;;;;;;;;;;21.70;32.80;;;;;;702276;28;842;-80
2022/03/19 00:43:05;;;;;;;;;;;20.80;32.40;;;;;;702205;28;837;-81
2022/03/19 00:43:26;;;;;;;;;;;21.70;32.60;;;;;;702103;28;781;-80
2022/03/19 00:43:47;;;;;;;;;;;21.80;32.60;;;;;;702379;28;818;-80
2022/03/19 00:44:07;;;;;;;;;;;21.80;32.60;;;;;;702301;28;881;-80
2022/03/19 00:44:28;;;;;;;;;;;21.80;32.70;;;;;;702371;28;806;-81
2022/03/19 00:44:48;;;;;;;;;;;21.80;33.10;;;;;;702400;28;841;-80
2022/03/19 00:45:10;;;;;;;;;;;21.70;32.60;;;;;;702294;28;810;-80
2022/03/19 00:45:30;;;;;;;;;;;21.70;32.60;;;;;;702348;28;857;-80
2022/03/19 00:45:51;;;;;;;;;;;21.80;32.60;;;;;;702416;28;593;-80
2022/03/19 00:46:13;;;;;;;;;;;21.80;32.80;;;;;;702228;28;873;-80
2022/03/19 00:46:33;;;;;;;;;;;21.70;32.60;;;;;;702313;28;849;-80
2022/03/19 00:46:54;;;;;;;;;;;21.80;32.80;;;;;;702316;28;857;-80
2022/03/19 00:47:14;;;;;;;;;;;21.70;32.60;;;;;;702473;28;576;-80
2022/03/19 00:47:35;;;;;;;;;;;21.80;32.70;;;;;;702300;28;909;-80
2022/03/19 00:47:56;;;;;;;;;;;21.70;32.70;;;;;;702271;28;853;-80
2022/03/19 00:48:17;;;;;;;;;;;21.70;33.00;;;;;;702090;28;1350;-80
2022/03/19 00:48:38;;;;;;;;;;;21.70;32.80;;;;;;702024;28;869;-80
2022/03/19 00:49:02;;;;;;;;;;;21.70;33.00;;;;;;701871;28;980;-81
2022/03/19 00:49:22;;;;;;;;;;;21.70;32.60;;;;;;702225;28;853;-81
2022/03/19 00:49:43;;;;;;;;;;;21.70;33.60;;;;;;702157;28;1955;-80
2022/03/19 00:50:04;;;;;;;;;;;21.70;32.70;;;;;;702121;28;826;-80
2022/03/19 00:50:25;;;;;;;;;;;21.70;32.60;;;;;;702227;28;1205;-80
2022/03/19 00:50:45;;;;;;;;;;;21.70;33.30;;;;;;702489;28;822;-80
2022/03/19 00:51:06;;;;;;;;;;;21.70;32.90;;;;;;702176;28;802;-80
2022/03/19 00:51:26;;;;;;;;;;;21.70;32.70;;;;;;702242;28;873;-80
2022/03/19 00:51:47;;;;;;;;;;;21.70;32.70;;;;;;702414;28;872;-80
2022/03/19 00:52:07;;;;;;;;;;;21.70;32.70;;;;;;702268;28;794;-80
2022/03/19 00:52:28;;;;;;;;;;;21.70;32.70;;;;;;702239;28;979;-80
2022/03/19 00:52:48;;;;;;;;;;;21.70;32.70;;;;;;702215;28;1428;-80
2022/03/19 00:53:09;;;;;;;;;;;21.70;32.80;;;;;;702025;28;818;-80
2022/03/19 00:53:29;;;;;;;;;;;21.70;32.70;;;;;;702077;28;944;-80
2022/03/19 00:53:50;;;;;;;;;;;21.70;32.80;;;;;;702197;28;873;-80
2022/03/19 00:54:12;;;;;;;;;;;21.70;32.80;;;;;;702047;28;806;-81
2022/03/19 00:54:33;;;;;;;;;;;21.70;32.60;;;;;;702065;28;810;-80
2022/03/19 00:54:53;;;;;;;;;;;21.70;33.30;;;;;;702327;28;830;-80
2022/03/19 00:55:14;;;;;;;;;;;21.70;33.20;;;;;;702266;28;806;-80
2022/03/19 00:55:35;;;;;;;;;;;21.70;33.00;;;;;;702313;28;837;-80
2022/03/19 00:55:56;;;;;;;;;;;21.70;32.70;;;;;;702275;28;906;-80
2022/03/19 00:56:16;;;;;;;;;;;21.70;33.70;;;;;;702212;28;988;-80
2022/03/19 00:56:37;;;;;;;;;;;21.70;32.90;;;;;;702097;28;885;-80
2022/03/19 00:56:57;;;;;;;;;;;21.70;33.30;;;;;;702330;28;886;-80
2022/03/19 00:57:18;;;;;;;;;;;21.70;33.10;;;;;;702206;28;826;-81
2022/03/19 00:57:40;;;;;;;;;;;21.70;33.10;;;;;;702116;28;806;-81
2022/03/19 00:58:00;;;;;;;;;;;21.70;33.10;;;;;;702343;28;779;-80
2022/03/19 00:58:21;;;;;;;;;;;21.70;33.00;;;;;;702299;28;865;-80
2022/03/19 00:58:41;;;;;;;;;;;21.70;33.30;;;;;;701928;28;1412;-80
2022/03/19 00:59:02;;;;;;;;;;;21.70;34.50;;;;;;699201;28;886;-80
2022/03/19 00:59:23;;;;;;;;;;;22.80;33.90;;;;;;699241;28;850;-81
2022/03/19 00:59:43;;;;;;;;;;;21.70;33.30;;;;;;699374;28;770;-81
2022/03/19 01:00:04;;;;;;;;;;;21.70;32.90;;;;;;699265;28;870;-80
2022/03/19 01:00:26;;;;;;;;;;;21.70;32.70;;;;;;699582;28;798;-80
2022/03/19 01:00:47;;;;;;;;;;;21.70;32.90;;;;;;699807;28;1097;-80
2022/03/19 01:01:07;;;;;;;;;;;21.70;32.80;;;;;;699322;28;1679;-80
2022/03/19 01:01:28;;;;;;;;;;;21.70;32.70;;;;;;699286;28;794;-78
2022/03/19 01:01:48;;;;;;;;;;;21.70;32.80;;;;;;699317;28;843;-79
2022/03/19 01:02:09;;;;;;;;;;;21.70;32.80;;;;;;699262;28;828;-79
2022/03/19 01:02:29;;;;;;;;;;;21.70;32.70;;;;;;699538;28;956;-80
2022/03/19 01:02:51;;;;;;;;;;;21.70;32.70;;;;;;702274;28;876;-79
2022/03/19 01:03:11;;;;;;;;;;;21.70;32.70;;;;;;702216;28;763;-81
2022/03/19 01:03:32;;;;;;;;;;;21.70;33.60;;;;;;701889;28;1224;-81
2022/03/19 01:03:53;;;;;;;;;;;23.00;34.20;;;;;;701912;28;1103;-81
2022/03/19 01:04:13;;;;;;;;;;;21.70;33.20;;;;;;702150;28;803;-81
2022/03/19 01:04:34;;;;;;;;;;;21.70;33.10;;;;;;702089;28;826;-83
2022/03/19 01:04:55;;;;;;;;;;;21.70;33.30;;;;;;702310;28;943;-82
2022/03/19 01:05:16;;;;;;;;;;;21.70;33.40;;;;;;702296;28;779;-80
2022/03/19 01:05:36;;;;;;;;;;;21.70;33.20;;;;;;701962;28;786;-81
2022/03/19 01:05:57;;;;;;;;;;;19.50;32.10;;;;;;702000;28;1256;-80
2022/03/19 01:06:18;;;;;;;;;;;21.60;32.90;;;;;;702127;28;925;-80
2022/03/19 01:06:38;;;;;;;;;;;21.60;33.00;;;;;;699160;28;1532;-81
2022/03/19 01:06:59;;;;;;;;;;;21.70;33.10;;;;;;699308;28;882;-81
2022/03/19 01:07:19;;;;;;;;;;;21.60;32.80;;;;;;699427;28;822;-84
2022/03/19 01:07:43;;;;;;;;;;;21.70;32.90;;;;;;699422;28;778;-82
2022/03/19 01:08:04;;;;;;;;;;;21.60;32.90;;;;;;702102;28;842;-78
2022/03/19 01:08:24;;;;;;;;;;;21.70;33.10;;;;;;702167;28;814;-79
2022/03/19 01:08:45;;;;;;;;;;;21.70;33.10;;;;;;702274;28;1346;-79
2022/03/19 01:09:05;;;;;;;;;;;21.70;33.10;;;;;;702127;28;1518;-79
2022/03/19 01:09:26;;;;;;;;;;;21.60;33.10;;;;;;702214;28;1475;-79
2022/03/19 01:09:46;;;;;;;;;;;21.70;33.10;;;;;;702340;28;2026;-79
2022/03/19 01:10:07;;;;;;;;;;;21.60;33.10;;;;;;702234;28;980;-79
2022/03/19 01:10:29;;;;;;;;;;;21.60;32.90;;;;;;702293;28;1323;-78
2022/03/19 01:10:49;;;;;;;;;;;21.70;33.10;;;;;;702195;28;1302;-79
2022/03/19 01:11:10;;;;;;;;;;;21.60;33.00;;;;;;702084;28;826;-79
2022/03/19 01:11:30;;;;;;;;;;;21.60;32.90;;;;;;701977;28;798;-79
2022/03/19 01:11:51;;;;;;;;;;;21.60;33.10;;;;;;702174;28;909;-79
2022/03/19 01:12:12;;;;;;;;;;;21.60;33.00;;;;;;702108;28;917;-79
2022/03/19 01:12:32;;;;;;;;;;;21.60;32.90;;;;;;702212;28;897;-79
2022/03/19 01:12:54;;;;;;;;;;;21.60;32.90;;;;;;702305;28;904;-79
2022/03/19 01:13:15;;;;;;;;;;;21.60;33.00;;;;;;702346;28;1190;-79
2022/03/19 01:13:35;;;;;;;;;;;21.70;33.00;;;;;;702247;28;904;-79
2022/03/19 01:13:56;;;;;;;;;;;21.60;33.00;;;;;;702547;28;920;-78
2022/03/19 01:14:18;;;;;;;;;;;21.60;33.30;;;;;;702708;28;888;-78
2022/03/19 01:14:38;;;;;;;;;;;21.60;32.90;;;;;;701819;28;1485;-78
2022/03/19 01:14:59;;;;;;;;;;;21.60;33.10;;;;;;700094;28;1475;-79
2022/03/19 01:15:20;;;;;;;;;;;21.60;33.20;;;;;;699768;28;1294;-78
2022/03/19 01:15:40;;;;;;;;;;;21.60;33.00;;;;;;699563;28;810;-79
2022/03/19 01:16:02;;;;;;;;;;;21.60;33.20;;;;;;699584;28;838;-78
2022/03/19 01:16:25;;;;;;;;;;;21.60;33.10;;;;;;699655;28;869;-80
2022/03/19 01:16:45;;;;;;;;;;;21.60;33.00;;;;;;699681;28;885;-78
2022/03/19 01:17:06;;;;;;;;;;;21.60;33.10;;;;;;699529;28;771;-78
2022/03/19 01:17:27;;;;;;;;;;;21.60;33.30;;;;;;699844;28;959;-78
2022/03/19 01:17:47;;;;;;;;;;;21.60;33.00;;;;;;699963;28;865;-78
2022/03/19 01:18:08;;;;;;;;;;;21.60;33.00;;;;;;699788;28;861;-78
2022/03/19 01:18:29;;;;;;;;;;;21.60;33.10;;;;;;699779;28;895;-78
2022/03/19 01:18:50;;;;;;;;;;;21.60;33.00;;;;;;699566;28;1077;-79
2022/03/19 01:19:10;;;;;;;;;;;21.60;33.30;;;;;;699508;28;933;-78
2022/03/19 01:20:11;;;;;;;;;;;21.60;33.00;;;;;;699621;28;632;-78
2022/03/19 01:20:31;;;;;;;;;;;21.60;33.00;;;;;;699550;28;889;-78
2022/03/19 01:20:52;;;;;;;;;;;21.60;33.00;;;;;;699559;28;810;-78
2022/03/19 01:21:12;;;;;;;;;;;21.60;33.30;;;;;;699653;28;826;-78
2022/03/19 01:21:33;;;;;;;;;;;21.60;33.10;;;;;;699510;28;973;-77
2022/03/19 01:21:55;;;;;;;;;;;21.60;33.00;;;;;;699472;28;845;-78
2022/03/19 01:22:16;;;;;;;;;;;21.60;33.00;;;;;;699634;28;873;-79
2022/03/19 01:22:38;;;;;;;;;;;21.60;33.20;;;;;;699086;28;1468;-79
2022/03/19 01:22:58;;;;;;;;;;;21.60;33.10;;;;;;696529;28;862;-78
2022/03/19 01:23:19;;;;;;;;;;;21.60;33.10;;;;;;696632;28;779;-78
2022/03/19 01:23:39;;;;;;;;;;;21.60;33.20;;;;;;698377;28;1328;-78
2022/03/19 01:24:00;;;;;;;;;;;21.60;33.00;;;;;;699082;28;1344;-78
2022/03/19 01:24:21;;;;;;;;;;;21.60;33.10;;;;;;699848;28;913;-78
2022/03/19 01:24:41;;;;;;;;;;;21.60;33.00;;;;;;699157;28;911;-78
2022/03/19 01:25:04;;;;;;;;;;;21.60;33.10;;;;;;701020;28;1245;-77
2022/03/19 01:25:25;;;;;;;;;;;21.60;33.00;;;;;;701546;28;1374;-78
2022/03/19 01:25:46;;;;;;;;;;;21.60;32.90;;;;;;702349;28;948;-78
2022/03/19 01:26:07;;;;;;;;;;;21.60;33.30;;;;;;702839;28;1411;-78
2022/03/19 01:26:27;;;;;;;;;;;21.60;33.00;;;;;;702824;28;888;-79
2022/03/19 01:26:48;;;;;;;;;;;21.60;32.90;;;;;;702888;28;817;-79
2022/03/19 01:27:08;;;;;;;;;;;21.60;33.10;;;;;;702733;28;1709;-78
2022/03/19 01:27:29;;;;;;;;;;;21.60;33.30;;;;;;702492;28;1400;-78
2022/03/19 01:27:50;;;;;;;;;;;21.60;32.90;;;;;;702692;28;924;-79
2022/03/19 01:28:10;;;;;;;;;;;21.60;32.90;;;;;;702704;28;833;-79
2022/03/19 01:28:31;;;;;;;;;;;21.60;33.00;;;;;;699703;28;862;-78
2022/03/19 01:28:52;;;;;;;;;;;21.60;33.00;;;;;;699868;28;939;-78
2022/03/19 01:29:12;;;;;;;;;;;21.60;32.90;;;;;;700225;28;818;-80
2022/03/19 01:29:33;;;;;;;;;;;21.60;32.90;;;;;;702696;28;825;-78
2022/03/19 01:29:53;;;;;;;;;;;21.60;33.00;;;;;;702493;28;1898;-79
2022/03/19 01:30:16;;;;;;;;;;;21.60;32.80;;;;;;702779;28;813;-79
2022/03/19 01:30:37;;;;;;;;;;;21.60;32.90;;;;;;702818;28;888;-79
2022/03/19 01:30:58;;;;;;;;;;;21.60;32.90;;;;;;702480;28;1206;-78
2022/03/19 01:31:21;;;;;;;;;;;21.50;32.80;;;;;;702697;28;889;-78
2022/03/19 01:31:41;;;;;;;;;;;21.50;32.80;;;;;;702561;28;853;-79
2022/03/19 01:32:03;;;;;;;;;;;21.60;32.80;;;;;;702514;28;885;-78
2022/03/19 01:32:24;;;;;;;;;;;21.60;32.90;;;;;;702652;28;889;-79
2022/03/19 01:32:46;;;;;;;;;;;21.60;32.80;;;;;;702741;28;1043;-78
2022/03/19 01:33:07;;;;;;;;;;;21.50;33.80;;;;;;702470;28;1375;-77
2022/03/19 01:33:27;;;;;;;;;;;21.60;32.70;;;;;;700118;28;1486;-77
2022/03/19 01:33:48;;;;;;;;;;;21.60;32.70;;;;;;699944;28;810;-78
2022/03/19 01:34:09;;;;;;;;;;;21.60;33.50;;;;;;699810;28;841;-79
2022/03/19 01:34:29;;;;;;;;;;;21.50;32.70;;;;;;699777;28;909;-78
2022/03/19 01:34:50;;;;;;;;;;;21.60;32.70;;;;;;700249;28;869;-79
2022/03/19 01:35:10;;;;;;;;;;;21.60;32.80;;;;;;702563;28;856;-78
2022/03/19 01:35:31;;;;;;;;;;;21.50;32.70;;;;;;702866;28;817;-78
2022/03/19 01:35:52;;;;;;;;;;;21.60;33.10;;;;;;702969;28;777;-78
2022/03/19 01:36:13;;;;;;;;;;;21.60;32.90;;;;;;702804;28;1311;-78
2022/03/19 01:36:33;;;;;;;;;;;21.50;33.00;;;;;;702396;28;1343;-78
2022/03/19 01:36:54;;;;;;;;;;;21.60;33.40;;;;;;702324;28;1410;-79
2022/03/19 01:37:14;;;;;;;;;;;21.60;32.80;;;;;;699879;28;936;-78
2022/03/19 01:37:35;;;;;;;;;;;21.60;32.70;;;;;;701689;28;1375;-79
2022/03/19 01:37:56;;;;;;;;;;;21.50;32.60;;;;;;702533;28;892;-79
2022/03/19 01:38:17;;;;;;;;;;;21.50;32.60;;;;;;702534;28;1284;-79
2022/03/19 01:38:37;;;;;;;;;;;21.60;32.60;;;;;;702705;28;1264;-78
2022/03/19 01:38:58;;;;;;;;;;;21.60;32.60;;;;;;701997;28;1366;-78
2022/03/19 01:39:19;;;;;;;;;;;21.60;32.60;;;;;;702470;28;1481;-77
2022/03/19 01:39:40;;;;;;;;;;;21.50;32.60;;;;;;702390;28;1455;-78
2022/03/19 01:40:00;;;;;;;;;;;21.60;32.60;;;;;;702503;28;1415;-78
2022/03/19 01:40:21;;;;;;;;;;;21.60;32.60;;;;;;702699;28;940;-78
2022/03/19 01:40:41;;;;;;;;;;;21.60;32.60;;;;;;702605;28;829;-77
2022/03/19 01:41:02;;;;;;;;;;;21.50;32.60;;;;;;702821;28;1378;-78
2022/03/19 01:41:23;;;;;;;;;;;21.50;32.60;;;;;;702761;28;1048;-78
2022/03/19 01:41:44;;;;;;;;;;;21.50;32.60;;;;;;702903;28;860;-79
2022/03/19 01:42:05;;;;;;;;;;;21.60;32.60;;;;;;702719;28;909;-78
2022/03/19 01:42:26;;;;;;;;;;;21.50;32.70;;;;;;702843;28;861;-78
2022/03/19 01:42:48;;;;;;;;;;;21.50;32.60;;;;;;702950;28;885;-78
2022/03/19 01:43:08;;;;;;;;;;;21.50;32.50;;;;;;702788;28;956;-77
2022/03/19 01:43:29;;;;;;;;;;;21.50;32.60;;;;;;702399;28;1295;-78
2022/03/19 01:43:49;;;;;;;;;;;21.60;32.60;;;;;;702648;28;814;-77
2022/03/19 01:44:16;;;;;;;;;;;21.50;32.60;;;;;;702566;28;865;-78
2022/03/19 01:44:37;;;;;;;;;;;21.50;32.50;;;;;;702560;28;905;-77
2022/03/19 01:44:58;;;;;;;;;;;21.60;32.50;;;;;;702577;28;810;-79
2022/03/19 01:45:20;;;;;;;;;;;21.60;32.60;;;;;;702771;28;880;-78
2022/03/19 01:45:40;;;;;;;;;;;21.50;32.50;;;;;;702785;28;845;-78
2022/03/19 01:46:02;;;;;;;;;;;21.60;32.60;;;;;;702811;28;920;-78
2022/03/19 01:46:22;;;;;;;;;;;21.50;32.40;;;;;;702961;28;857;-78
2022/03/19 01:46:52;;;;;;;;;;;21.50;32.50;;;;;;702936;28;857;-78
2022/03/19 01:47:13;;;;;;;;;;;21.50;32.50;;;;;;702873;28;897;-79
2022/03/19 01:47:33;;;;;;;;;;;21.50;32.50;;;;;;702715;28;877;-78
2022/03/19 01:47:55;;;;;;;;;;;21.50;32.50;;;;;;702722;28;873;-79
2022/03/19 01:48:15;;;;;;;;;;;21.50;32.40;;;;;;702831;28;806;-78
2022/03/19 01:48:36;;;;;;;;;;;21.60;32.60;;;;;;702737;28;884;-78
2022/03/19 01:48:56;;;;;;;;;;;21.50;32.60;;;;;;702567;28;954;-79
2022/03/19 01:49:17;;;;;;;;;;;21.50;32.80;;;;;;702649;28;1298;-78
2022/03/19 01:49:37;;;;;;;;;;;21.60;33.00;;;;;;702759;28;810;-78
2022/03/19 01:49:58;;;;;;;;;;;21.50;33.10;;;;;;702567;28;1962;-78
2022/03/19 01:50:19;;;;;;;;;;;21.60;33.00;;;;;;702843;28;896;-78
2022/03/19 01:50:40;;;;;;;;;;;21.60;33.00;;;;;;702788;28;798;-78
2022/03/19 01:51:00;;;;;;;;;;;21.60;33.20;;;;;;702780;28;861;-78
2022/03/19 01:51:21;;;;;;;;;;;21.60;33.00;;;;;;702835;28;1434;-78
2022/03/19 01:51:41;;;;;;;;;;;21.60;33.00;;;;;;702736;28;814;-78
2022/03/19 01:52:02;;;;;;;;;;;21.60;33.10;;;;;;702650;28;972;-78
2022/03/19 01:52:23;;;;;;;;;;;21.70;33.00;;;;;;702703;28;1114;-77
2022/03/19 01:52:47;;;;;;;;;;;21.60;32.90;;;;;;702897;28;871;-78
2022/03/19 01:53:07;;;;;;;;;;;21.60;33.10;;;;;;702729;28;801;-78
2022/03/19 01:53:28;;;;;;;;;;;21.70;32.90;;;;;;702562;28;1240;-77
2022/03/19 01:53:49;;;;;;;;;;;21.70;32.80;;;;;;702747;28;1283;-78
2022/03/19 01:54:09;;;;;;;;;;;21.70;32.70;;;;;;702712;28;837;-78
2022/03/19 01:54:31;;;;;;;;;;;21.70;32.80;;;;;;702756;28;968;-78
2022/03/19 01:54:53;;;;;;;;;;;21.70;32.80;;;;;;702959;28;893;-78
2022/03/19 01:55:15;;;;;;;;;;;21.70;32.70;;;;;;702536;28;1346;-78
2022/03/19 01:55:36;;;;;;;;;;;21.70;32.60;;;;;;702386;28;1306;-78
2022/03/19 01:55:57;;;;;;;;;;;21.70;32.50;;;;;;702495;28;1220;-77
2022/03/19 01:56:18;;;;;;;;;;;21.70;32.50;;;;;;702601;28;893;-78
2022/03/19 01:56:39;;;;;;;;;;;21.70;32.50;;;;;;702528;28;913;-78
2022/03/19 01:57:00;;;;;;;;;;;21.70;32.40;;;;;;702593;28;848;-78
2022/03/19 01:57:21;;;;;;;;;;;21.70;32.50;;;;;;700028;28;1386;-77
2022/03/19 01:57:43;;;;;;;;;;;21.70;32.60;;;;;;702574;28;801;-78
2022/03/19 01:58:04;;;;;;;;;;;20.80;31.80;;;;;;702526;28;846;-78
2022/03/19 01:58:24;;;;;;;;;;;21.70;32.40;;;;;;702522;28;794;-79
2022/03/19 01:58:45;;;;;;;;;;;21.70;32.50;;;;;;702564;28;1050;-78
2022/03/19 01:59:06;;;;;;;;;;;21.70;32.30;;;;;;702588;28;893;-76
2022/03/19 01:59:30;;;;;;;;;;;21.70;32.30;;;;;;702677;28;869;-77
2022/03/19 01:59:51;;;;;;;;;;;21.70;32.30;;;;;;702826;28;794;-77
2022/03/19 02:00:12;;;;;;;;;;;21.70;32.20;;;;;;702751;28;794;-78
2022/03/19 02:00:34;;;;;;;;;;;21.70;32.40;;;;;;702762;28;821;-79
2022/03/19 02:00:57;;;;;;;;;;;21.80;32.40;;;;;;702767;28;822;-78
2022/03/19 02:01:17;;;;;;;;;;;21.70;32.20;;;;;;702420;28;1315;-78
2022/03/19 02:01:38;;;;;;;;;;;21.80;32.30;;;;;;702560;28;877;-78
2022/03/19 02:01:58;;;;;;;;;;;21.80;32.20;;;;;;702499;28;873;-78
2022/03/19 02:02:19;;;;;;;;;;;21.80;32.10;;;;;;702481;28;853;-79
2022/03/19 02:02:41;;;;;;;;;;;21.80;32.20;;;;;;702526;28;849;-77
2022/03/19 02:03:02;;;;;;;;;;;21.80;32.10;;;;;;702626;28;786;-78
2022/03/19 02:03:23;;;;;;;;;;;21.80;32.10;;;;;;702995;28;806;-78
2022/03/19 02:03:43;;;;;;;;;;;21.80;32.20;;;;;;700009;28;845;-79
2022/03/19 02:04:04;;;;;;;;;;;21.80;32.30;;;;;;699851;28;834;-78
2022/03/19 02:04:25;;;;;;;;;;;21.80;32.10;;;;;;699830;28;845;-78
2022/03/19 02:04:46;;;;;;;;;;;21.80;32.10;;;;;;700017;28;858;-77
2022/03/19 02:05:10;;;;;;;;;;;21.80;32.10;;;;;;699715;28;845;-78
2022/03/19 02:05:30;;;;;;;;;;;21.80;32.30;;;;;;699646;28;1057;-79
2022/03/19 02:05:51;;;;;;;;;;;21.80;32.10;;;;;;697157;28;1235;-79
2022/03/19 02:06:12;;;;;;;;;;;21.80;32.20;;;;;;696957;28;790;-78
2022/03/19 02:06:32;;;;;;;;;;;21.80;32.10;;;;;;696833;28;953;-79
2022/03/19 02:06:56;;;;;;;;;;;21.80;32.00;;;;;;697859;28;857;-80
2022/03/19 02:07:17;;;;;;;;;;;21.80;32.30;;;;;;699835;28;818;-79
2022/03/19 02:07:37;;;;;;;;;;;21.80;32.20;;;;;;699712;28;924;-78